Terminal Aerodrome Forecast
Issued by NWS Buffalo, NY

Home | Current Version | Previous Version | Text Only | Print | Product List | Glossary On
Versions: 1 2 3 4 5 6 7 8 9 10 11 12 13 14 15 16 17 18 19 20 21 22 23 24 25 26 27 28 29 30 31 32 33 34 35 36 37 38 39 40 41 42 43 44 45 46 47 48 49 50
000
FTUS41 KBUF 151137
TAFBUF
TAF
KBUF 151137Z 1512/1612 20005KT P6SM FEW035 SCT110
     FM151400 21005KT P6SM BKN110
     FM151800 25008KT P6SM VCSH OVC060
     FM152000 23007KT 6SM -SHRA BKN035
     FM152300 21007KT P6SM VCSH BKN040
     FM160600 18004KT 6SM -SHRA BR BKN025
     FM161000 VRB03KT 6SM -SHRA BR OVC015=

USA.gov is the U.S. government's official web portal to all federal, state and local government web resources and services.